createdAt,value
2023-01-13T00:00:53.578Z,2.70
2023-01-13T00:01:55.350Z,2.40
2023-01-13T00:02:57.119Z,2.42
2023-01-13T00:04:00.158Z,2.63
2023-01-13T00:05:01.973Z,2.35
2023-01-13T00:06:04.514Z,2.15
2023-01-13T00:07:06.270Z,2.67
2023-01-13T00:08:08.114Z,3.10
2023-01-13T00:09:09.914Z,2.65
2023-01-13T00:10:11.850Z,2.90
2023-01-13T00:11:13.611Z,4.50
2023-01-13T00:12:15.420Z,3.05
2023-01-13T00:13:17.191Z,3.10
2023-01-13T00:14:18.996Z,3.10
2023-01-13T00:15:20.790Z,2.90
2023-01-13T00:16:22.628Z,3.08
2023-01-13T00:17:24.487Z,3.10
2023-01-13T00:18:26.861Z,2.97
2023-01-13T00:19:28.661Z,2.58
2023-01-13T00:20:30.441Z,3.33
2023-01-13T00:21:32.340Z,2.80
2023-01-13T00:22:35.347Z,3.25
2023-01-13T00:23:37.363Z,2.88
2023-01-13T00:24:39.217Z,3.00
2023-01-13T00:25:40.988Z,2.83
2023-01-13T00:26:42.777Z,2.80
2023-01-13T00:27:44.558Z,2.88
2023-01-13T00:28:46.719Z,2.63
2023-01-13T00:29:48.517Z,2.40
2023-01-13T00:30:50.366Z,2.90
2023-01-13T00:31:52.222Z,2.83
2023-01-13T00:32:54.094Z,10.38
2023-01-13T00:34:00.818Z,7.82
2023-01-13T00:35:02.598Z,4.15
2023-01-13T00:36:06.325Z,3.63
2023-01-13T00:37:08.493Z,3.63
2023-01-13T00:38:10.281Z,2.80
2023-01-13T00:39:12.138Z,2.78
2023-01-13T00:40:14.241Z,2.38
2023-01-13T00:41:18.408Z,2.25
2023-01-13T00:42:38.630Z,1.98
2023-01-13T00:43:40.943Z,2.58
2023-01-13T00:44:42.708Z,2.70
2023-01-13T00:45:44.805Z,2.88
2023-01-13T00:46:46.602Z,2.95
2023-01-13T00:47:48.526Z,2.67
2023-01-13T00:48:51.760Z,2.83
2023-01-13T00:49:53.599Z,2.50
2023-01-13T00:51:04.338Z,2.60
2023-01-13T00:52:06.236Z,2.92
2023-01-13T00:53:08.046Z,2.58
2023-01-13T00:54:09.967Z,2.70
2023-01-13T00:55:11.771Z,2.58
2023-01-13T00:56:18.117Z,2.95
2023-01-13T00:57:20.031Z,2.70
2023-01-13T00:58:21.802Z,2.70
2023-01-13T00:59:23.860Z,3.45
2023-01-13T01:00:32.048Z,2.90
2023-01-13T01:01:34.026Z,2.75
2023-01-13T01:02:36.069Z,3.30
2023-01-13T01:03:38.437Z,3.60
2023-01-13T01:04:40.221Z,3.75
2023-01-13T01:05:42.051Z,3.72
2023-01-13T01:06:43.914Z,3.67
2023-01-13T01:07:45.716Z,3.92
2023-01-13T01:08:47.682Z,3.78
2023-01-13T01:09:50.107Z,3.72
2023-01-13T01:11:07.674Z,3.72
2023-01-13T01:12:09.471Z,4.03
2023-01-13T01:13:14.949Z,3.80
2023-01-13T01:14:16.723Z,3.58
2023-01-13T01:15:18.501Z,3.60
2023-01-13T01:16:22.237Z,3.83
2023-01-13T01:17:24.053Z,3.47
2023-01-13T01:18:26.291Z,3.90
2023-01-13T01:19:28.064Z,3.75
2023-01-13T01:20:29.843Z,3.40
2023-01-13T01:21:32.176Z,3.25
2023-01-13T01:22:34.053Z,3.72
2023-01-13T01:23:37.054Z,3.28
2023-01-13T01:24:38.844Z,3.05
2023-01-13T01:25:40.621Z,3.88
2023-01-13T01:26:42.544Z,3.38
2023-01-13T01:27:44.311Z,3.55
2023-01-13T01:28:46.811Z,3.20
2023-01-13T01:29:48.592Z,3.47
2023-01-13T01:30:51.500Z,3.03
2023-01-13T01:31:53.747Z,3.95
2023-01-13T01:32:57.438Z,3.72
2023-01-13T01:34:00.134Z,4.25
2023-01-13T01:35:01.918Z,4.65
2023-01-13T01:36:04.688Z,3.95
2023-01-13T01:37:06.542Z,4.47
2023-01-13T01:38:08.376Z,8.05
2023-01-13T01:39:10.595Z,8.68
2023-01-13T01:40:12.721Z,4.53
2023-01-13T01:41:20.479Z,3.80
2023-01-13T01:42:41.502Z,3.20
2023-01-13T01:43:59.532Z,3.17
2023-01-13T01:45:15.242Z,3.03
2023-01-13T01:46:17.574Z,2.90
2023-01-13T01:47:20.610Z,2.97
2023-01-13T01:48:22.392Z,3.05
2023-01-13T01:49:33.193Z,2.92
2023-01-13T01:50:36.317Z,3.17
2023-01-13T01:52:18.400Z,3.17
2023-01-13T01:54:32.589Z,2.70
2023-01-13T01:55:37.200Z,2.78
2023-01-13T01:56:42.116Z,2.97
2023-01-13T01:57:53.462Z,2.42
2023-01-13T02:00:01.174Z,7.80
2023-01-13T02:01:03.139Z,3.05
2023-01-13T02:02:05.257Z,2.75
2023-01-13T02:03:09.183Z,2.67
2023-01-13T02:04:25.886Z,2.90
2023-01-13T02:05:27.721Z,2.70
2023-01-13T02:06:30.254Z,2.80
2023-01-13T02:07:34.615Z,2.90
2023-01-13T02:08:40.332Z,2.88
2023-01-13T02:09:42.195Z,2.60
2023-01-13T02:10:49.119Z,3.00
2023-01-13T02:12:23.170Z,2.63
2023-01-13T02:13:24.971Z,2.40
2023-01-13T02:14:29.186Z,2.88
2023-01-13T02:15:42.467Z,2.72
2023-01-13T02:17:27.520Z,2.47
2023-01-13T02:18:45.566Z,3.53
2023-01-13T02:20:16.945Z,16.83
2023-01-13T02:21:40.418Z,3.33
2023-01-13T02:23:07.346Z,2.47
2023-01-13T02:24:54.191Z,2.45
2023-01-13T02:26:14.976Z,2.50
2023-01-13T02:27:19.854Z,2.63
2023-01-13T02:29:01.148Z,2.60
2023-01-13T02:30:59.574Z,2.47
2023-01-13T02:32:13.805Z,2.67
2023-01-13T02:33:59.966Z,2.72
2023-01-13T02:35:12.690Z,2.63
2023-01-13T02:36:39.362Z,2.70
2023-01-13T02:37:44.017Z,3.05
2023-01-13T02:38:57.784Z,2.60
2023-01-13T02:40:30.788Z,2.63
2023-01-13T02:41:59.528Z,3.00
2023-01-13T02:43:47.971Z,2.42
2023-01-13T02:45:29.092Z,2.80
2023-01-13T02:46:36.156Z,2.78
2023-01-13T02:47:42.489Z,2.55
2023-01-13T02:48:48.045Z,2.63
2023-01-13T02:50:02.807Z,2.60
2023-01-13T02:51:09.703Z,2.88
2023-01-13T02:52:34.409Z,2.33
2023-01-13T02:53:43.035Z,2.50
2023-01-13T02:54:51.614Z,3.00
2023-01-13T02:55:56.417Z,2.40
2023-01-13T02:57:01.119Z,2.60
2023-01-13T02:58:06.439Z,2.60
2023-01-13T02:59:09.491Z,2.58
2023-01-13T03:00:13.598Z,2.30
2023-01-13T03:01:15.416Z,2.17
2023-01-13T03:02:21.580Z,2.70
2023-01-13T03:03:23.790Z,2.42
2023-01-13T03:04:49.703Z,2.30
2023-01-13T03:05:55.139Z,2.15
2023-01-13T03:07:31.073Z,1.95
2023-01-13T03:08:55.037Z,2.40
2023-01-13T03:10:25.243Z,1.95
2023-01-13T03:11:33.651Z,2.10
2023-01-13T03:12:38.099Z,2.08
2023-01-13T03:13:47.789Z,2.75
2023-01-13T03:14:58.283Z,2.70
2023-01-13T03:16:06.333Z,2.03
2023-01-13T03:17:13.848Z,2.45
2023-01-13T03:18:36.070Z,2.08
2023-01-13T03:19:53.970Z,2.38
2023-01-13T03:21:28.101Z,2.42
2023-01-13T03:22:41.255Z,1.90
2023-01-13T03:23:58.956Z,2.50
2023-01-13T03:25:29.981Z,2.20
2023-01-13T03:26:56.798Z,2.00
2023-01-13T03:28:06.957Z,2.65
2023-01-13T03:29:31.831Z,2.15
2023-01-13T03:30:48.590Z,2.47
2023-01-13T03:32:12.685Z,2.70
2023-01-13T03:33:24.214Z,2.63
2023-01-13T03:34:37.333Z,2.17
2023-01-13T03:35:44.052Z,2.25
2023-01-13T03:36:51.250Z,2.20
2023-01-13T03:38:00.523Z,2.33
2023-01-13T03:39:11.682Z,2.33
2023-01-13T03:40:18.731Z,2.60
2023-01-13T03:41:30.414Z,1.98
2023-01-13T03:42:36.561Z,2.45
2023-01-13T03:44:02.445Z,2.25
2023-01-13T03:45:12.617Z,2.55
2023-01-13T03:46:29.911Z,2.40
2023-01-13T03:47:36.861Z,2.67
2023-01-13T03:48:43.673Z,2.00
2023-01-13T03:49:53.724Z,2.05
2023-01-13T03:51:03.069Z,2.15
2023-01-13T03:52:10.028Z,2.17
2023-01-13T03:53:19.016Z,2.10
2023-01-13T03:54:23.937Z,2.15
2023-01-13T03:55:31.931Z,1.70
2023-01-13T03:56:43.448Z,1.88
2023-01-13T03:58:29.255Z,1.70
2023-01-13T03:59:38.447Z,2.05
2023-01-13T04:01:00.351Z,1.88
2023-01-13T04:02:14.505Z,2.08
2023-01-13T04:03:34.212Z,2.03
2023-01-13T04:04:52.260Z,2.10
2023-01-13T04:06:04.334Z,2.35
2023-01-13T04:07:15.768Z,2.05
2023-01-13T04:08:22.087Z,1.95
2023-01-13T04:09:29.607Z,2.22
2023-01-13T04:10:47.890Z,2.13
2023-01-13T04:11:54.812Z,2.55
2023-01-13T04:13:02.674Z,2.22
2023-01-13T04:14:08.507Z,2.20
2023-01-13T04:15:10.673Z,2.42
2023-01-13T04:16:13.334Z,2.30
2023-01-13T04:17:16.565Z,2.28
2023-01-13T04:18:22.445Z,2.22
2023-01-13T04:19:24.221Z,2.25
2023-01-13T04:20:25.922Z,2.00
2023-01-13T04:21:28.402Z,1.98
2023-01-13T04:22:30.127Z,2.00
2023-01-13T04:23:32.832Z,1.80
2023-01-13T04:24:34.546Z,1.88
2023-01-13T04:25:36.841Z,1.60
2023-01-13T04:26:38.600Z,1.80
2023-01-13T04:27:40.287Z,1.58
2023-01-13T04:28:41.970Z,1.27
2023-01-13T04:29:43.682Z,1.70
2023-01-13T04:30:46.022Z,1.52
2023-01-13T04:31:47.746Z,1.73
2023-01-13T04:32:49.471Z,1.42
2023-01-13T04:33:51.211Z,1.30
2023-01-13T04:34:52.970Z,1.60
2023-01-13T04:35:55.308Z,1.90
2023-01-13T04:36:57.051Z,3.08
2023-01-13T04:38:12.079Z,2.30
2023-01-13T04:39:13.842Z,2.35
2023-01-13T04:40:15.985Z,30.90
2023-01-13T04:41:17.692Z,3.90
2023-01-13T04:42:19.413Z,1.70
2023-01-13T04:43:21.295Z,1.70
2023-01-13T04:44:23.044Z,2.40
2023-01-13T04:45:24.942Z,2.80
2023-01-13T04:46:26.829Z,2.58
2023-01-13T04:47:28.607Z,2.20
2023-01-13T04:48:30.316Z,2.70
2023-01-13T04:49:32.047Z,2.13
2023-01-13T04:50:34.094Z,1.50
2023-01-13T04:51:35.811Z,1.40
2023-01-13T04:52:38.519Z,1.30
2023-01-13T04:53:40.235Z,1.45
2023-01-13T04:54:41.963Z,1.92
2023-01-13T04:55:44.604Z,1.55
2023-01-13T04:56:46.371Z,1.70
2023-01-13T04:57:48.120Z,2.03
2023-01-13T04:58:49.821Z,11.32
2023-01-13T04:59:52.176Z,17.40
2023-01-13T05:00:55.102Z,3.13
2023-01-13T05:01:56.911Z,2.65
2023-01-13T05:02:59.639Z,2.40
2023-01-13T05:04:01.357Z,1.83
2023-01-13T05:05:03.255Z,2.28
2023-01-13T05:06:05.121Z,3.50
2023-01-13T05:07:06.889Z,2.17
2023-01-13T05:08:09.213Z,1.90
2023-01-13T05:09:12.527Z,1.77
2023-01-13T05:10:14.414Z,1.63
2023-01-13T05:11:34.945Z,1.70
2023-01-13T05:12:55.507Z,1.48
2023-01-13T05:14:16.050Z,2.15
2023-01-13T05:15:36.553Z,2.42
2023-01-13T05:16:56.980Z,2.80
2023-01-13T05:17:59.133Z,4.95
2023-01-13T05:19:00.848Z,7.40
2023-01-13T05:20:02.729Z,25.27
2023-01-13T05:21:04.445Z,8.32
2023-01-13T05:22:24.661Z,4.97
2023-01-13T05:23:45.242Z,4.28
2023-01-13T05:25:05.844Z,6.57
2023-01-13T05:26:07.759Z,6.35
2023-01-13T05:27:09.937Z,5.78
2023-01-13T05:28:11.822Z,4.63
2023-01-13T05:29:13.618Z,3.03
2023-01-13T05:30:15.868Z,2.42
2023-01-13T05:31:17.590Z,2.45
2023-01-13T05:32:19.747Z,2.35
2023-01-13T05:33:21.550Z,1.75
2023-01-13T05:34:23.283Z,1.90
2023-01-13T05:35:25.246Z,1.65
2023-01-13T05:36:26.946Z,1.73
2023-01-13T05:37:28.759Z,2.63
2023-01-13T05:38:30.491Z,7.47
2023-01-13T05:39:52.140Z,3.75
2023-01-13T05:42:34.183Z,2.80
2023-01-13T05:43:36.026Z,2.28
2023-01-13T05:44:37.898Z,1.70
2023-01-13T05:45:39.607Z,1.58
2023-01-13T05:46:42.120Z,1.50
2023-01-13T05:47:43.879Z,1.83
2023-01-13T05:48:45.860Z,1.30
2023-01-13T05:49:47.560Z,1.88
2023-01-13T05:50:49.741Z,6.68
2023-01-13T05:51:51.467Z,17.17
2023-01-13T05:52:53.156Z,8.50
2023-01-13T05:53:54.938Z,7.95
2023-01-13T05:54:56.629Z,15.35
2023-01-13T05:55:58.565Z,17.42
2023-01-13T05:57:00.268Z,19.65
2023-01-13T05:58:02.025Z,20.08
2023-01-13T05:59:04.662Z,18.00
2023-01-13T06:00:07.116Z,20.50
2023-01-13T06:01:09.704Z,16.95
2023-01-13T06:02:11.461Z,14.40
2023-01-13T06:03:14.438Z,20.75
2023-01-13T06:04:16.301Z,15.10
2023-01-13T06:05:18.003Z,10.68
2023-01-13T06:06:19.689Z,6.10
2023-01-13T06:07:21.392Z,5.22
2023-01-13T06:08:23.097Z,7.40
2023-01-13T06:09:24.925Z,8.05
2023-01-13T06:10:27.746Z,7.72
2023-01-13T06:11:29.433Z,6.70
2023-01-13T06:12:31.115Z,4.35
2023-01-13T06:13:32.839Z,4.60
2023-01-13T06:14:40.238Z,4.90
2023-01-13T06:15:42.042Z,4.00
2023-01-13T06:16:45.683Z,3.03
2023-01-13T06:17:47.395Z,1.92
2023-01-13T06:18:49.086Z,2.95
2023-01-13T06:19:51.282Z,2.80
2023-01-13T06:20:53.124Z,2.70
2023-01-13T06:21:57.936Z,2.70
2023-01-13T06:23:00.558Z,2.28
2023-01-13T06:24:02.248Z,2.55
2023-01-13T06:25:04.550Z,2.50
2023-01-13T06:26:16.100Z,2.53
2023-01-13T06:27:18.458Z,2.55
2023-01-13T06:28:20.282Z,2.38
2023-01-13T06:29:21.982Z,2.42
2023-01-13T06:30:23.855Z,2.15
2023-01-13T06:31:26.364Z,2.40
2023-01-13T06:32:33.726Z,2.17
2023-01-13T06:33:49.515Z,2.30
2023-01-13T06:34:58.578Z,2.45
2023-01-13T06:36:06.157Z,3.92
2023-01-13T06:37:07.985Z,5.60
2023-01-13T06:38:13.366Z,4.25
2023-01-13T06:39:19.068Z,5.00
2023-01-13T06:40:21.396Z,5.88
2023-01-13T06:41:44.283Z,6.05
2023-01-13T06:43:04.604Z,6.72
2023-01-13T06:44:06.325Z,6.25
2023-01-13T06:45:08.720Z,9.75
2023-01-13T06:46:10.500Z,4.38
2023-01-13T06:47:12.275Z,4.97
2023-01-13T06:48:14.466Z,4.85
2023-01-13T06:49:16.189Z,4.10
2023-01-13T06:50:19.039Z,3.50
2023-01-13T06:51:20.866Z,3.78
2023-01-13T06:52:23.647Z,3.35
2023-01-13T06:53:25.457Z,3.55
2023-01-13T06:54:27.891Z,3.60
2023-01-13T06:55:29.702Z,3.40
2023-01-13T06:56:31.459Z,3.58
2023-01-13T06:57:33.207Z,2.92
2023-01-13T06:58:34.966Z,3.63
2023-01-13T06:59:36.712Z,3.60
2023-01-13T07:00:38.636Z,4.00
2023-01-13T07:01:40.565Z,3.55
2023-01-13T07:02:42.367Z,3.40
2023-01-13T07:03:44.124Z,3.58
2023-01-13T07:04:46.904Z,3.78
2023-01-13T07:05:56.162Z,3.70
2023-01-13T07:06:57.903Z,3.15
2023-01-13T07:07:59.672Z,3.50
2023-01-13T07:09:01.359Z,3.53
2023-01-13T07:10:04.011Z,3.17
2023-01-13T07:11:06.014Z,3.45
2023-01-13T07:12:07.991Z,4.45
2023-01-13T07:13:28.551Z,4.25
2023-01-13T07:14:49.153Z,4.13
2023-01-13T07:15:59.025Z,3.73
2023-01-13T07:17:00.832Z,3.33
2023-01-13T07:18:03.294Z,3.78
2023-01-13T07:19:04.999Z,3.80
2023-01-13T07:20:07.549Z,3.70
2023-01-13T07:21:12.080Z,3.58
2023-01-13T07:22:14.066Z,3.90
2023-01-13T07:23:15.760Z,3.90
2023-01-13T07:24:17.594Z,3.58
2023-01-13T07:25:19.333Z,3.90
2023-01-13T07:26:21.138Z,4.28
2023-01-13T07:27:22.861Z,3.70
2023-01-13T07:28:25.802Z,4.03
2023-01-13T07:29:27.509Z,3.08
2023-01-13T07:30:29.304Z,3.65
2023-01-13T07:31:31.141Z,3.90
2023-01-13T07:32:33.827Z,4.55
2023-01-13T07:33:35.687Z,7.40
2023-01-13T07:34:37.439Z,6.68
2023-01-13T07:35:39.203Z,5.43
2023-01-13T07:36:40.908Z,5.15
2023-01-13T07:37:42.624Z,3.90
2023-01-13T07:38:44.832Z,3.33
2023-01-13T07:39:46.531Z,2.88
2023-01-13T07:40:48.234Z,3.13
2023-01-13T07:42:08.553Z,2.97
2023-01-13T07:43:31.409Z,3.08
2023-01-13T07:44:33.193Z,2.97
2023-01-13T07:45:34.931Z,2.65
2023-01-13T07:46:37.776Z,2.72
2023-01-13T07:47:40.097Z,3.10
2023-01-13T07:48:41.935Z,2.75
2023-01-13T07:49:43.633Z,2.72
2023-01-13T07:50:45.353Z,2.90
2023-01-13T07:51:48.321Z,3.00
2023-01-13T07:52:51.251Z,2.83
2023-01-13T07:53:52.980Z,2.70
2023-01-13T07:54:54.752Z,2.40
2023-01-13T07:55:57.902Z,3.17
2023-01-13T07:56:59.627Z,2.50
2023-01-13T07:58:01.332Z,2.88
2023-01-13T07:59:03.323Z,2.90
2023-01-13T08:00:05.702Z,2.80
2023-01-13T08:01:09.639Z,3.30
2023-01-13T08:02:13.260Z,2.97
2023-01-13T08:03:15.022Z,2.90
2023-01-13T08:04:16.751Z,2.85
2023-01-13T08:05:18.619Z,3.90
2023-01-13T08:06:20.320Z,3.38
2023-01-13T08:07:22.109Z,6.10
2023-01-13T08:08:23.814Z,3.13
2023-01-13T08:09:25.560Z,3.50
2023-01-13T08:10:27.307Z,3.55
2023-01-13T08:11:29.282Z,3.20
2023-01-13T08:12:52.806Z,3.28
2023-01-13T08:13:57.989Z,3.08
2023-01-13T08:14:59.711Z,2.85
2023-01-13T08:16:06.634Z,3.17
2023-01-13T08:17:09.442Z,3.50
2023-01-13T08:18:12.085Z,3.20
2023-01-13T08:19:13.829Z,3.50
2023-01-13T08:20:15.888Z,3.47
2023-01-13T08:21:17.857Z,4.03
2023-01-13T08:22:19.559Z,3.35
2023-01-13T08:23:22.588Z,3.50
2023-01-13T08:24:24.441Z,3.28
2023-01-13T08:25:27.815Z,3.20
2023-01-13T08:26:29.516Z,3.92
2023-01-13T08:27:31.235Z,3.70
2023-01-13T08:28:33.188Z,3.30
2023-01-13T08:29:34.960Z,3.33
2023-01-13T08:30:36.857Z,4.10
2023-01-13T08:31:38.589Z,3.55
2023-01-13T08:32:40.313Z,3.47
2023-01-13T08:33:42.502Z,4.53
2023-01-13T08:34:44.236Z,4.38
2023-01-13T08:35:46.197Z,4.15
2023-01-13T08:36:50.354Z,4.18
2023-01-13T08:37:52.422Z,4.25
2023-01-13T08:38:54.167Z,4.50
2023-01-13T08:39:55.867Z,4.25
2023-01-13T08:40:57.805Z,4.47
2023-01-13T08:41:59.592Z,4.20
2023-01-13T08:43:01.557Z,4.50
2023-01-13T08:44:03.453Z,4.07
2023-01-13T08:45:06.502Z,4.40
2023-01-13T08:46:08.333Z,4.20
2023-01-13T08:47:10.217Z,4.45
2023-01-13T08:48:12.055Z,3.97
2023-01-13T08:49:13.778Z,4.53
2023-01-13T08:50:15.637Z,5.93
2023-01-13T08:51:17.383Z,7.72
2023-01-13T08:52:19.382Z,7.05
2023-01-13T08:53:21.169Z,6.10
2023-01-13T08:54:22.922Z,6.30
2023-01-13T08:55:24.713Z,6.35
2023-01-13T08:56:26.432Z,6.40
2023-01-13T08:57:28.921Z,6.07
2023-01-13T08:58:30.692Z,7.00
2023-01-13T08:59:32.696Z,6.10
2023-01-13T09:00:34.437Z,6.43
2023-01-13T09:01:36.235Z,6.10
2023-01-13T09:02:38.713Z,6.03
2023-01-13T09:03:41.957Z,6.40
2023-01-13T09:04:45.171Z,5.93
2023-01-13T09:05:47.023Z,5.85
2023-01-13T09:06:49.537Z,5.43
2023-01-13T09:07:51.234Z,6.20
2023-01-13T09:08:52.989Z,5.85
2023-01-13T09:09:56.879Z,5.85
2023-01-13T09:10:58.738Z,5.95
2023-01-13T09:12:18.996Z,6.55
2023-01-13T09:13:21.930Z,6.40
2023-01-13T09:14:26.863Z,6.80
2023-01-13T09:15:28.732Z,6.10
2023-01-13T09:16:30.565Z,7.25
2023-01-13T09:17:32.343Z,6.93
2023-01-13T09:18:34.032Z,7.38
2023-01-13T09:19:36.076Z,6.85
2023-01-13T09:20:38.269Z,21.52
2023-01-13T09:21:40.071Z,8.45
2023-01-13T09:22:41.891Z,7.57
2023-01-13T09:23:43.593Z,7.90
2023-01-13T09:24:46.398Z,7.68
2023-01-13T09:25:49.293Z,7.95
2023-01-13T09:26:51.530Z,8.15
2023-01-13T09:27:53.277Z,8.98
2023-01-13T09:28:55.475Z,7.53
2023-01-13T09:29:57.189Z,7.22
2023-01-13T09:31:01.404Z,7.55
2023-01-13T09:32:03.625Z,6.93
2023-01-13T09:33:23.787Z,7.20
2023-01-13T09:35:04.081Z,7.50
2023-01-13T09:36:06.254Z,6.60
2023-01-13T09:37:08.522Z,7.80
2023-01-13T09:38:10.242Z,7.68
2023-01-13T09:39:11.992Z,6.93
2023-01-13T09:40:19.618Z,7.45
2023-01-13T09:41:46.136Z,7.57
2023-01-13T09:43:40.075Z,8.20
2023-01-13T09:44:58.137Z,7.25
2023-01-13T09:46:05.924Z,7.53
2023-01-13T09:47:18.098Z,6.75
2023-01-13T09:48:26.869Z,7.82
2023-01-13T09:49:39.106Z,7.78
2023-01-13T09:50:53.039Z,7.93
2023-01-13T09:52:15.201Z,7.50
2023-01-13T09:53:24.752Z,7.18
2023-01-13T09:54:35.323Z,7.25
2023-01-13T09:55:37.223Z,8.25
2023-01-13T09:56:38.978Z,7.70
2023-01-13T09:57:41.094Z,7.63
2023-01-13T09:58:45.692Z,7.35
2023-01-13T09:59:48.802Z,7.28
2023-01-13T10:01:19.002Z,7.85
2023-01-13T10:02:48.411Z,7.20
2023-01-13T10:03:50.311Z,5.97
2023-01-13T10:05:13.965Z,6.68
2023-01-13T10:06:34.976Z,6.78
2023-01-13T10:07:42.341Z,6.28
2023-01-13T10:08:46.027Z,5.93
2023-01-13T10:09:53.974Z,7.57
2023-01-13T10:11:24.282Z,7.38
2023-01-13T10:12:45.643Z,6.65
2023-01-13T10:13:51.065Z,7.85
2023-01-13T10:14:56.061Z,7.22
2023-01-13T10:16:24.404Z,7.53
2023-01-13T10:17:54.637Z,6.32
2023-01-13T10:19:06.700Z,6.10
2023-01-13T10:20:30.302Z,7.70
2023-01-13T10:21:53.303Z,6.95
2023-01-13T10:23:13.411Z,6.95
2023-01-13T10:24:30.127Z,6.13
2023-01-13T10:25:50.202Z,6.35
2023-01-13T10:27:05.649Z,5.68
2023-01-13T10:28:17.683Z,5.45
2023-01-13T10:29:28.813Z,5.53
2023-01-13T10:30:36.151Z,4.97
2023-01-13T10:31:37.858Z,5.03
2023-01-13T10:32:42.986Z,4.60
2023-01-13T10:33:44.680Z,4.50
2023-01-13T10:34:52.059Z,5.47
2023-01-13T10:36:15.775Z,5.18
2023-01-13T10:37:23.420Z,5.55
2023-01-13T10:38:35.669Z,5.22
2023-01-13T10:39:47.612Z,4.97
2023-01-13T10:41:02.257Z,5.15
2023-01-13T10:42:05.457Z,4.38
2023-01-13T10:43:07.215Z,5.25
2023-01-13T10:44:17.379Z,5.07
2023-01-13T10:45:25.271Z,4.70
2023-01-13T10:46:28.169Z,4.47
2023-01-13T10:47:35.910Z,4.45
2023-01-13T10:48:56.032Z,5.00
2023-01-13T10:50:13.134Z,4.50
2023-01-13T10:51:25.920Z,4.93
2023-01-13T10:52:33.269Z,4.82
2023-01-13T10:53:46.442Z,4.72
2023-01-13T10:54:57.187Z,5.13
2023-01-13T10:56:01.818Z,4.68
2023-01-13T10:57:14.781Z,5.30
2023-01-13T10:58:21.415Z,5.07
2023-01-13T10:59:27.013Z,5.35
2023-01-13T11:00:33.560Z,5.22
2023-01-13T11:01:35.460Z,5.07
2023-01-13T11:02:37.594Z,5.43
2023-01-13T11:03:43.163Z,5.40
2023-01-13T11:04:54.077Z,5.47
2023-01-13T11:05:58.279Z,4.90
2023-01-13T11:07:01.117Z,4.78
2023-01-13T11:08:02.936Z,5.15
2023-01-13T11:09:20.260Z,4.97
2023-01-13T11:10:31.434Z,5.25
2023-01-13T11:12:59.467Z,5.65
2023-01-13T11:14:23.819Z,5.50
2023-01-13T11:15:38.666Z,5.10
2023-01-13T11:16:53.034Z,5.07
2023-01-13T11:18:01.749Z,5.57
2023-01-13T11:19:14.477Z,5.50
2023-01-13T11:20:23.653Z,5.10
2023-01-13T11:21:33.402Z,4.88
2023-01-13T11:22:45.143Z,5.53
2023-01-13T11:24:14.790Z,5.35
2023-01-13T11:25:33.890Z,6.00
2023-01-13T11:26:51.623Z,5.80
2023-01-13T11:28:01.012Z,6.20
2023-01-13T11:29:18.050Z,5.93
2023-01-13T11:30:29.830Z,5.55
2023-01-13T11:31:36.978Z,5.88
2023-01-13T11:33:08.845Z,5.97
2023-01-13T11:34:32.695Z,5.95
2023-01-13T11:35:40.826Z,6.32
2023-01-13T11:36:50.834Z,5.68
2023-01-13T11:37:59.184Z,6.82
2023-01-13T11:39:23.474Z,5.57
2023-01-13T11:40:32.924Z,5.78
2023-01-13T11:41:47.550Z,6.03
2023-01-13T11:43:04.475Z,6.10
2023-01-13T11:44:38.688Z,6.95
2023-01-13T11:45:44.503Z,6.82
2023-01-13T11:46:49.994Z,6.78
2023-01-13T11:47:57.761Z,6.50
2023-01-13T11:49:01.035Z,6.65
2023-01-13T11:50:03.414Z,6.25
2023-01-13T11:51:13.926Z,6.07
2023-01-13T11:52:31.225Z,5.75
2023-01-13T11:53:54.068Z,6.32
2023-01-13T11:55:22.531Z,5.18
2023-01-13T11:57:02.403Z,6.55
2023-01-13T11:58:24.020Z,7.40
2023-01-13T11:59:50.639Z,6.95
2023-01-13T12:01:36.870Z,7.53
2023-01-13T12:03:17.295Z,7.68
2023-01-13T12:04:28.237Z,6.90
2023-01-13T12:05:48.344Z,7.07
2023-01-13T12:07:23.291Z,7.03
2023-01-13T12:08:48.083Z,7.35
2023-01-13T12:10:01.571Z,7.57
2023-01-13T12:11:15.196Z,8.00
2023-01-13T12:12:40.924Z,7.72
2023-01-13T12:14:20.640Z,8.93
2023-01-13T12:15:22.600Z,8.18
2023-01-13T12:16:30.656Z,8.48
2023-01-13T12:18:10.217Z,8.52
2023-01-13T12:19:29.932Z,9.90
2023-01-13T12:21:03.948Z,8.45
2023-01-13T12:22:28.140Z,8.43
2023-01-13T12:24:06.119Z,8.98
2023-01-13T12:25:21.401Z,7.53
2023-01-13T12:26:23.746Z,7.57
2023-01-13T12:27:37.733Z,7.25
2023-01-13T12:28:51.569Z,8.02
2023-01-13T12:29:57.165Z,8.43
2023-01-13T12:31:02.076Z,8.65
2023-01-13T12:32:07.976Z,8.10
2023-01-13T12:33:22.077Z,9.00
2023-01-13T12:34:34.077Z,8.55
2023-01-13T12:36:17.482Z,7.85
2023-01-13T12:37:46.259Z,7.68
2023-01-13T12:38:59.641Z,7.88
2023-01-13T12:40:13.556Z,7.70
2023-01-13T12:42:05.929Z,8.10
2023-01-13T12:43:40.737Z,8.80
2023-01-13T12:45:10.259Z,8.05
2023-01-13T12:46:23.787Z,7.97
2023-01-13T12:47:41.529Z,8.20
2023-01-13T12:48:56.834Z,7.78
2023-01-13T12:50:23.946Z,7.63
2023-01-13T12:51:54.615Z,7.63
2023-01-13T12:53:01.216Z,8.85
2023-01-13T12:54:25.621Z,8.25
2023-01-13T12:55:30.027Z,8.95
2023-01-13T12:56:45.394Z,8.85
2023-01-13T12:58:05.945Z,8.02
2023-01-13T12:59:17.043Z,8.73
2023-01-13T13:00:19.339Z,8.35
2023-01-13T13:01:35.793Z,8.52
2023-01-13T13:02:42.673Z,8.05
2023-01-13T13:04:41.469Z,8.57
2023-01-13T13:06:07.972Z,8.25
2023-01-13T13:07:15.699Z,8.15
2023-01-13T13:08:37.106Z,8.50
2023-01-13T13:11:32.412Z,8.40
2023-01-13T13:13:01.691Z,8.10
2023-01-13T13:14:06.297Z,9.05
2023-01-13T13:15:21.759Z,8.73
2023-01-13T13:16:26.574Z,8.38
2023-01-13T13:17:31.906Z,8.93
2023-01-13T13:18:34.024Z,8.38
2023-01-13T13:19:35.663Z,8.50
2023-01-13T13:20:56.427Z,8.90
2023-01-13T13:22:13.743Z,8.65
2023-01-13T13:23:40.437Z,8.05
2023-01-13T13:25:03.543Z,8.80
2023-01-13T13:26:20.440Z,8.55
2023-01-13T13:27:37.137Z,9.30
2023-01-13T13:28:48.023Z,9.52
2023-01-13T13:30:00.641Z,10.65
2023-01-13T13:31:40.432Z,10.30
2023-01-13T13:32:47.981Z,10.10
2023-01-13T13:34:20.039Z,9.57
2023-01-13T13:35:27.500Z,9.38
2023-01-13T13:37:07.148Z,10.95
2023-01-13T13:38:45.674Z,11.10
2023-01-13T13:40:06.641Z,9.88
2023-01-13T13:41:38.351Z,10.40
2023-01-13T13:43:03.443Z,9.68
2023-01-13T13:44:48.431Z,9.60
2023-01-13T13:46:11.537Z,9.30
2023-01-13T13:47:13.389Z,9.40
2023-01-13T13:48:24.088Z,8.77
2023-01-13T13:49:41.361Z,9.00
2023-01-13T13:50:47.872Z,10.07
2023-01-13T13:52:02.974Z,10.70
2023-01-13T13:53:08.557Z,10.27
2023-01-13T13:54:17.605Z,9.55
2023-01-13T13:55:20.584Z,9.35
2023-01-13T13:56:26.009Z,8.15
2023-01-13T13:57:35.225Z,8.48
2023-01-13T13:58:37.317Z,8.40
2023-01-13T13:59:40.117Z,8.00
2023-01-13T14:00:48.493Z,8.38
2023-01-13T14:02:01.642Z,8.35
2023-01-13T14:03:07.807Z,8.38
2023-01-13T14:04:22.601Z,8.65
2023-01-13T14:05:29.587Z,8.40
2023-01-13T14:06:32.942Z,8.55
2023-01-13T14:07:46.058Z,7.97
2023-01-13T14:08:50.550Z,8.57
2023-01-13T14:09:54.463Z,8.18
2023-01-13T14:10:56.540Z,8.15
2023-01-13T14:12:03.564Z,8.52
2023-01-13T14:13:25.945Z,8.38
2023-01-13T14:14:28.144Z,8.05
2023-01-13T14:15:33.853Z,8.70
2023-01-13T14:16:39.908Z,10.40
2023-01-13T14:17:41.618Z,11.45
2023-01-13T14:18:47.868Z,11.18
2023-01-13T14:20:17.773Z,11.38
2023-01-13T14:21:28.257Z,11.65
2023-01-13T14:22:30.005Z,10.10
2023-01-13T14:23:33.516Z,9.45
2023-01-13T14:24:46.969Z,9.68
2023-01-13T14:25:51.470Z,10.80
2023-01-13T14:26:53.797Z,11.02
2023-01-13T14:27:59.915Z,10.23
2023-01-13T14:29:02.768Z,10.40
2023-01-13T14:30:05.022Z,10.27
2023-01-13T14:31:09.620Z,9.45
2023-01-13T14:32:17.451Z,9.55
2023-01-13T14:33:24.340Z,9.93
2023-01-13T14:34:32.930Z,10.10
2023-01-13T14:35:34.850Z,9.68
2023-01-13T14:36:37.932Z,10.80
2023-01-13T14:37:41.871Z,11.02
2023-01-13T14:38:47.560Z,10.32
2023-01-13T14:39:49.284Z,9.90
2023-01-13T14:40:51.106Z,9.68
2023-01-13T14:41:53.584Z,9.45
2023-01-13T14:43:22.830Z,9.27
2023-01-13T14:44:32.376Z,9.43
2023-01-13T14:45:34.099Z,9.02
2023-01-13T14:46:41.158Z,8.80
2023-01-13T14:47:52.458Z,8.73
2023-01-13T14:49:01.311Z,10.20
2023-01-13T14:50:03.386Z,9.32
2023-01-13T14:51:10.886Z,9.27
2023-01-13T14:52:24.467Z,9.52
2023-01-13T14:53:47.455Z,9.38
2023-01-13T14:54:53.838Z,9.23
2023-01-13T14:55:55.577Z,9.82
2023-01-13T14:57:22.321Z,9.80
2023-01-13T14:58:31.225Z,11.98
2023-01-13T14:59:33.517Z,12.48
2023-01-13T15:00:35.907Z,12.85
2023-01-13T15:01:39.557Z,13.13
2023-01-13T15:02:56.495Z,13.55
2023-01-13T15:09:12.962Z,16.02
2023-01-13T15:10:19.633Z,16.58
2023-01-13T15:11:26.798Z,17.17
2023-01-13T15:12:31.333Z,17.60
2023-01-13T15:13:52.873Z,16.90
2023-01-13T15:21:31.603Z,17.88
2023-01-13T15:22:33.303Z,17.83
2023-01-13T15:25:39.387Z,19.27
2023-01-13T15:26:41.245Z,19.23
2023-01-13T15:27:50.292Z,20.48
2023-01-13T15:28:53.887Z,21.75
2023-01-13T15:29:55.611Z,20.85
2023-01-13T15:31:00.797Z,20.20
2023-01-13T15:32:02.511Z,19.38